Herborn, Illinois
Current Conditions -  °F | °C
As of 5:53 PM on Sunday 23 Nov 2014 (Local Time) from KMTO Reporting Station
Moderate Rain Moderate Rain  
Wind Chill: 51°   Ceiling: 400
Heat Index: 51°   Visibility: 10mi
Dew Point: 50°   Wind: 10mph
Humidity: 96%   Direction: 130°SE
Pressure: 29.3"   Gusts: NA
Location:  39.3879°N, 88.6432°W
Report Text: KMTO 232353Z AUTO 13009KT 10SM RA OVC004 11/10 A2930 RMK AO2 SLP923 P0005 60020 T01060100 10106 20100 56048
Loading
Personal Weather Stations






























Interactive Weather Map New forecast layout! Learn more

10-Day Weather Forecast

Advertisements
Track Severe Weather on mobile